createdAt,value
2023-04-08T00:00:27.048Z,92.97
2023-04-08T00:02:53.878Z,94.37
2023-04-08T00:05:21.746Z,94.12
2023-04-08T00:07:48.635Z,94.30
2023-04-08T00:10:15.475Z,93.91
2023-04-08T00:12:42.142Z,93.94
2023-04-08T00:15:09.039Z,93.59
2023-04-08T00:17:35.961Z,94.64
2023-04-08T00:20:03.061Z,93.72
2023-04-08T00:22:29.676Z,93.01
2023-04-08T00:24:57.985Z,93.45
2023-04-08T00:27:27.749Z,93.18
2023-04-08T00:29:54.458Z,92.75
2023-04-08T00:32:21.598Z,92.68
2023-04-08T00:34:48.192Z,92.80
2023-04-08T00:37:14.864Z,93.46
2023-04-08T00:39:41.597Z,94.28
2023-04-08T00:42:08.280Z,95.20
2023-04-08T00:44:34.896Z,95.64
2023-04-08T00:47:01.844Z,95.81
2023-04-08T00:49:28.422Z,93.05
2023-04-08T00:51:55.825Z,93.06
2023-04-08T00:54:22.537Z,92.64
2023-04-08T00:56:49.121Z,93.07
2023-04-08T00:59:17.761Z,92.78
2023-04-08T01:02:15.483Z,93.27
2023-04-08T01:04:59.352Z,93.74
2023-04-08T01:07:49.952Z,95.23
2023-04-08T01:10:22.309Z,96.89
2023-04-08T01:13:02.012Z,97.76
2023-04-08T01:15:30.803Z,98.55
2023-04-08T01:17:59.574Z,99.08
2023-04-08T01:20:27.342Z,100.00
2023-04-08T01:23:05.754Z,100.00
2023-04-08T01:25:36.668Z,100.00
2023-04-08T01:28:13.203Z,100.00
2023-04-08T01:30:41.490Z,100.00
2023-04-08T01:33:15.241Z,100.00
2023-04-08T01:35:41.986Z,100.00
2023-04-08T01:38:11.212Z,100.00
2023-04-08T01:40:39.816Z,100.00
2023-04-08T01:43:09.779Z,100.00
2023-04-08T01:45:36.334Z,100.00
2023-04-08T01:48:04.147Z,100.00
2023-04-08T01:50:32.054Z,100.00
2023-04-08T01:53:00.712Z,99.46
2023-04-08T01:55:28.961Z,98.28
2023-04-08T01:57:59.790Z,97.20
2023-04-08T02:00:29.795Z,97.05
2023-04-08T02:02:57.821Z,97.41
2023-04-08T02:05:24.742Z,97.57
2023-04-08T02:07:52.226Z,98.03
2023-04-08T02:10:18.771Z,97.58
2023-04-08T02:12:46.788Z,97.71
2023-04-08T02:15:14.493Z,97.34
2023-04-08T02:17:45.716Z,97.50
2023-04-08T02:20:23.792Z,97.68
2023-04-08T02:23:14.845Z,97.96
2023-04-08T02:25:44.568Z,99.08
2023-04-08T02:28:12.111Z,99.57
2023-04-08T02:30:43.605Z,100.00
2023-04-08T02:33:12.098Z,100.00
2023-04-08T02:35:41.202Z,100.00
2023-04-08T02:38:09.864Z,100.00
2023-04-08T02:40:37.068Z,100.00
2023-04-08T02:43:03.924Z,100.00
2023-04-08T02:45:33.931Z,100.00
2023-04-08T02:48:01.582Z,100.00
2023-04-08T02:50:28.247Z,100.00
2023-04-08T02:52:55.284Z,100.00
2023-04-08T02:55:21.938Z,100.00
2023-04-08T02:57:49.005Z,100.00
2023-04-08T03:00:16.378Z,100.00
2023-04-08T03:02:43.229Z,100.00
2023-04-08T03:05:10.468Z,100.00
2023-04-08T03:07:37.114Z,100.00
2023-04-08T03:10:04.340Z,100.00
2023-04-08T03:12:31.464Z,100.00
2023-04-08T03:14:58.123Z,100.00
2023-04-08T03:17:24.733Z,100.00
2023-04-08T03:19:51.439Z,100.00
2023-04-08T03:22:17.999Z,100.00
2023-04-08T03:24:44.519Z,100.00
2023-04-08T03:27:12.643Z,100.00
2023-04-08T03:29:39.287Z,100.00
2023-04-08T03:32:06.301Z,100.00
2023-04-08T03:34:34.709Z,100.00
2023-04-08T03:37:01.882Z,100.00
2023-04-08T03:39:28.752Z,100.00
2023-04-08T03:41:55.365Z,100.00
2023-04-08T03:44:22.125Z,100.00
2023-04-08T03:46:48.865Z,100.00
2023-04-08T03:49:15.752Z,100.00
2023-04-08T03:51:42.389Z,100.00
2023-04-08T03:54:09.056Z,100.00
2023-04-08T03:56:35.774Z,100.00
2023-04-08T03:59:02.334Z,100.00
2023-04-08T04:01:30.319Z,100.00
2023-04-08T04:03:57.178Z,100.00
2023-04-08T04:06:23.988Z,100.00
2023-04-08T04:08:51.122Z,100.00
2023-04-08T04:11:17.958Z,100.00
2023-04-08T04:13:44.522Z,100.00
2023-04-08T04:16:11.160Z,100.00
2023-04-08T04:18:38.082Z,100.00
2023-04-08T04:21:07.890Z,100.00
2023-04-08T04:23:34.688Z,100.00
2023-04-08T04:26:01.513Z,100.00
2023-04-08T04:28:28.230Z,100.00
2023-04-08T04:30:56.563Z,100.00
2023-04-08T04:33:23.534Z,100.00
2023-04-08T04:35:50.474Z,100.00
2023-04-08T04:38:17.391Z,100.00
2023-04-08T04:40:44.408Z,100.00
2023-04-08T04:43:11.268Z,100.00
2023-04-08T04:45:37.959Z,100.00
2023-04-08T04:48:04.789Z,100.00
2023-04-08T04:50:31.426Z,100.00
2023-04-08T04:52:58.068Z,100.00
2023-04-08T04:55:24.611Z,100.00
2023-04-08T04:57:51.405Z,100.00
2023-04-08T05:00:18.006Z,100.00
2023-04-08T05:02:44.727Z,100.00
2023-04-08T05:05:11.687Z,100.00
2023-04-08T05:07:39.116Z,100.00
2023-04-08T05:10:06.264Z,100.00
2023-04-08T05:12:33.570Z,100.00
2023-04-08T05:15:00.828Z,100.00
2023-04-08T05:17:27.467Z,100.00
2023-04-08T05:19:54.253Z,100.00
2023-04-08T05:22:20.831Z,100.00
2023-04-08T05:24:47.405Z,100.00
2023-04-08T05:27:14.046Z,99.40
2023-04-08T05:29:40.610Z,98.56
2023-04-08T05:32:07.305Z,97.79
2023-04-08T05:34:34.072Z,98.02
2023-04-08T05:37:00.824Z,96.23
2023-04-08T05:39:27.395Z,94.53
2023-04-08T05:41:54.124Z,91.75
2023-04-08T05:44:20.741Z,89.45
2023-04-08T05:46:47.360Z,86.85
2023-04-08T05:49:14.344Z,87.67
2023-04-08T05:51:41.145Z,86.32
2023-04-08T05:54:07.764Z,84.22
2023-04-08T05:56:34.931Z,84.27
2023-04-08T05:59:01.565Z,85.20
2023-04-08T06:01:28.244Z,85.55
2023-04-08T06:03:56.545Z,85.44
2023-04-08T06:06:23.878Z,85.84
2023-04-08T06:08:50.599Z,85.64
2023-04-08T06:11:17.802Z,83.85
2023-04-08T06:13:44.401Z,81.68
2023-04-08T06:16:17.577Z,81.55
2023-04-08T06:18:45.669Z,79.46
2023-04-08T06:21:12.245Z,77.93
2023-04-08T06:23:38.961Z,75.75
2023-04-08T06:26:05.588Z,75.53
2023-04-08T06:28:32.634Z,74.96
2023-04-08T06:30:59.637Z,75.29
2023-04-08T06:33:26.277Z,72.40
2023-04-08T06:36:01.265Z,72.70
2023-04-08T06:38:27.936Z,71.96
2023-04-08T06:40:54.566Z,71.74
2023-04-08T06:43:21.109Z,73.30
2023-04-08T06:45:47.719Z,77.23
2023-04-08T06:48:14.264Z,77.46
2023-04-08T06:50:40.923Z,77.38
2023-04-08T06:53:07.503Z,78.47
2023-04-08T06:55:34.133Z,81.03
2023-04-08T06:58:02.190Z,82.54
2023-04-08T07:00:28.885Z,81.80
2023-04-08T07:02:55.485Z,82.02
2023-04-08T07:05:22.187Z,83.75
2023-04-08T07:07:48.749Z,83.52
2023-04-08T07:10:15.774Z,83.77
2023-04-08T07:12:42.443Z,83.82
2023-04-08T07:15:09.848Z,84.11
2023-04-08T07:17:36.969Z,84.21
2023-04-08T07:20:03.963Z,82.39
2023-04-08T07:22:30.677Z,82.71
2023-04-08T07:24:57.432Z,82.24
2023-04-08T07:27:24.080Z,83.20
2023-04-08T07:29:54.590Z,84.46
2023-04-08T07:32:21.942Z,82.43
2023-04-08T07:34:48.547Z,79.85
2023-04-08T07:37:15.410Z,79.71
2023-04-08T07:39:41.980Z,78.37
2023-04-08T07:42:08.536Z,78.27
2023-04-08T07:44:35.634Z,77.12
2023-04-08T07:47:02.273Z,77.46
2023-04-08T07:49:28.858Z,75.01
2023-04-08T07:51:55.961Z,74.28
2023-04-08T07:54:22.634Z,74.31
2023-04-08T07:56:49.196Z,75.62
2023-04-08T07:59:16.066Z,74.52
2023-04-08T08:01:42.982Z,73.43
2023-04-08T08:04:09.830Z,74.41
2023-04-08T08:06:36.482Z,72.90
2023-04-08T08:09:03.091Z,70.20
2023-04-08T08:11:29.805Z,72.15
2023-04-08T08:13:56.986Z,74.98
2023-04-08T08:16:27.312Z,74.19
2023-04-08T08:18:54.046Z,74.05
2023-04-08T08:21:20.579Z,77.23
2023-04-08T08:23:47.328Z,78.43
2023-04-08T08:26:14.042Z,78.90
2023-04-08T08:28:40.763Z,78.86
2023-04-08T08:31:07.666Z,76.63
2023-04-08T08:33:34.500Z,76.18
2023-04-08T08:36:01.301Z,73.94
2023-04-08T08:38:27.956Z,73.36
2023-04-08T08:40:58.571Z,74.15
2023-04-08T08:43:25.814Z,76.50
2023-04-08T08:45:52.992Z,75.81
2023-04-08T08:48:19.875Z,76.43
2023-04-08T08:50:46.692Z,76.85
2023-04-08T08:53:13.658Z,76.50
2023-04-08T08:56:05.621Z,77.42
2023-04-08T08:58:28.493Z,74.82
2023-04-08T09:00:55.522Z,75.95
2023-04-08T09:03:24.079Z,76.71
2023-04-08T09:06:02.061Z,77.66
2023-04-08T09:08:33.120Z,79.39
2023-04-08T09:11:17.066Z,77.88
2023-04-08T09:13:45.386Z,76.26
2023-04-08T09:16:15.053Z,75.49
2023-04-08T09:18:44.733Z,72.07
2023-04-08T09:21:12.740Z,70.52
2023-04-08T09:23:47.817Z,73.14
2023-04-08T09:26:22.400Z,70.46
2023-04-08T09:29:24.254Z,70.81
2023-04-08T09:31:56.743Z,70.99
2023-04-08T09:34:24.439Z,71.06
2023-04-08T09:36:52.605Z,69.84
2023-04-08T09:39:19.757Z,68.99
2023-04-08T09:41:50.578Z,66.73
2023-04-08T09:44:20.702Z,66.72
2023-04-08T09:46:50.324Z,66.20
2023-04-08T09:49:26.078Z,67.59
2023-04-08T09:52:04.657Z,68.92
2023-04-08T09:54:55.969Z,67.01
2023-04-08T09:57:33.724Z,68.65
2023-04-08T10:00:14.278Z,68.79
2023-04-08T10:02:59.038Z,69.42
2023-04-08T10:05:27.590Z,67.81
2023-04-08T10:07:56.507Z,68.26
2023-04-08T10:10:23.757Z,71.45
2023-04-08T10:12:51.416Z,71.00
2023-04-08T10:15:32.590Z,70.40
2023-04-08T10:18:08.219Z,71.44
2023-04-08T10:20:34.976Z,70.19
2023-04-08T10:23:01.967Z,69.08
2023-04-08T10:25:33.209Z,67.78
2023-04-08T10:28:01.854Z,68.61
2023-04-08T10:30:28.459Z,69.30
2023-04-08T10:33:00.010Z,67.93
2023-04-08T10:35:31.439Z,68.28
2023-04-08T10:37:59.316Z,69.83
2023-04-08T10:40:26.106Z,70.26
2023-04-08T10:42:56.823Z,68.84
2023-04-08T10:45:23.993Z,69.58
2023-04-08T10:47:50.957Z,69.52
2023-04-08T10:50:19.399Z,68.40
2023-04-08T10:52:48.715Z,68.70
2023-04-08T10:55:16.676Z,69.60
2023-04-08T10:57:43.270Z,70.86
2023-04-08T11:00:18.815Z,69.38
2023-04-08T11:02:45.775Z,68.71
2023-04-08T11:05:31.380Z,68.15
2023-04-08T11:07:59.230Z,69.72
2023-04-08T11:10:27.114Z,68.28
2023-04-08T11:12:57.414Z,67.80
2023-04-08T11:15:30.395Z,67.00
2023-04-08T11:17:57.366Z,66.78
2023-04-08T11:20:25.481Z,66.93
2023-04-08T11:22:52.136Z,66.83
2023-04-08T11:25:18.828Z,66.38
2023-04-08T11:27:45.425Z,65.29
2023-04-08T11:30:12.525Z,66.42
2023-04-08T11:32:40.177Z,65.37
2023-04-08T11:35:07.896Z,65.44
2023-04-08T11:37:39.807Z,64.67
2023-04-08T11:40:13.203Z,64.29
2023-04-08T11:42:40.270Z,65.28
2023-04-08T11:45:14.775Z,66.65
2023-04-08T11:47:41.726Z,65.27
2023-04-08T11:50:09.322Z,64.91
2023-04-08T11:52:48.904Z,64.63
2023-04-08T11:55:41.994Z,65.11
2023-04-08T11:58:08.652Z,65.49
2023-04-08T12:00:35.370Z,64.96
2023-04-08T12:03:02.028Z,64.68
2023-04-08T12:05:28.690Z,64.24
2023-04-08T12:07:55.263Z,64.21
2023-04-08T12:10:22.052Z,64.15
2023-04-08T12:12:48.606Z,65.32
2023-04-08T12:15:16.141Z,65.79
2023-04-08T12:17:43.933Z,66.71
2023-04-08T12:20:12.256Z,66.71
2023-04-08T12:22:39.822Z,66.24
2023-04-08T12:25:06.826Z,65.14
2023-04-08T12:27:36.110Z,64.05
2023-04-08T12:30:03.784Z,64.59
2023-04-08T12:32:30.547Z,65.37
2023-04-08T12:34:57.329Z,67.37
2023-04-08T12:37:24.413Z,66.96
2023-04-08T12:39:51.634Z,67.02
2023-04-08T12:42:18.367Z,67.47
2023-04-08T12:44:45.006Z,67.55
2023-04-08T12:47:11.611Z,67.49
2023-04-08T12:52:08.574Z,67.47
2023-04-08T12:54:35.285Z,67.24
2023-04-08T12:57:02.964Z,67.55
2023-04-08T12:59:29.662Z,67.63
2023-04-08T13:01:56.357Z,67.57
2023-04-08T13:04:23.016Z,68.37
2023-04-08T13:06:49.587Z,69.39
2023-04-08T13:09:16.444Z,68.41
2023-04-08T13:11:43.142Z,70.08
2023-04-08T13:14:09.781Z,71.48
2023-04-08T13:16:37.346Z,73.17
2023-04-08T13:19:04.076Z,73.34
2023-04-08T13:21:31.455Z,71.89
2023-04-08T13:23:58.208Z,73.28
2023-04-08T13:26:24.884Z,75.22
2023-04-08T13:28:57.249Z,75.75
2023-04-08T13:31:26.798Z,74.82
2023-04-08T13:33:56.015Z,74.98
2023-04-08T13:36:24.425Z,73.10
2023-04-08T13:38:51.055Z,72.00
2023-04-08T13:41:18.063Z,70.76
2023-04-08T13:43:44.670Z,70.67
2023-04-08T13:46:11.308Z,71.37
2023-04-08T13:48:38.080Z,68.92
2023-04-08T13:51:05.568Z,68.95
2023-04-08T13:53:32.161Z,68.09
2023-04-08T13:55:59.242Z,68.67
2023-04-08T13:58:28.982Z,68.14
2023-04-08T14:00:56.020Z,66.87
2023-04-08T14:03:22.692Z,67.09
2023-04-08T14:05:51.204Z,66.88
2023-04-08T14:08:25.052Z,66.70
2023-04-08T14:10:52.404Z,70.42
2023-04-08T14:13:19.452Z,69.08
2023-04-08T14:15:46.954Z,73.82
2023-04-08T14:18:14.263Z,77.88
2023-04-08T14:20:41.432Z,79.15
2023-04-08T14:23:08.104Z,76.21
2023-04-08T14:25:34.733Z,74.02
2023-04-08T14:28:01.519Z,72.19
2023-04-08T14:30:28.907Z,72.16
2023-04-08T14:32:55.840Z,73.00
2023-04-08T14:35:23.145Z,73.61
2023-04-08T14:37:49.749Z,74.70
2023-04-08T14:40:16.672Z,76.12
2023-04-08T14:42:44.950Z,75.29
2023-04-08T14:45:11.622Z,74.26
2023-04-08T14:47:38.199Z,75.36
2023-04-08T14:50:05.133Z,75.76
2023-04-08T14:52:31.836Z,74.91
2023-04-08T14:54:58.454Z,75.60
2023-04-08T14:57:25.694Z,75.45
2023-04-08T14:59:52.471Z,77.29
2023-04-08T15:02:19.219Z,77.71
2023-04-08T15:04:46.013Z,77.87
2023-04-08T15:07:12.821Z,77.91
2023-04-08T15:09:39.454Z,77.54
2023-04-08T15:12:06.465Z,76.07
2023-04-08T15:14:33.046Z,77.86
2023-04-08T15:16:59.791Z,78.97
2023-04-08T15:19:26.444Z,78.83
2023-04-08T15:21:53.008Z,76.56
2023-04-08T15:24:20.266Z,77.20
2023-04-08T15:26:46.880Z,78.72
2023-04-08T15:29:13.501Z,79.56
2023-04-08T15:31:40.212Z,80.00
2023-04-08T15:34:06.956Z,80.87
2023-04-08T15:36:35.922Z,81.69
2023-04-08T15:39:02.552Z,81.86
2023-04-08T15:41:29.429Z,80.96
2023-04-08T15:43:56.204Z,81.50
2023-04-08T15:46:23.404Z,81.76
2023-04-08T15:48:51.038Z,82.24
2023-04-08T15:51:18.108Z,83.10
2023-04-08T15:53:44.787Z,84.03
2023-04-08T15:56:18.231Z,86.87
2023-04-08T15:58:46.352Z,91.93
2023-04-08T16:01:13.354Z,95.27
2023-04-08T16:03:40.003Z,97.43
2023-04-08T16:06:07.719Z,98.52
2023-04-08T16:08:34.852Z,100.00
2023-04-08T16:11:04.575Z,98.91
2023-04-08T16:13:31.534Z,100.00
2023-04-08T16:16:01.518Z,100.00
2023-04-08T16:18:28.758Z,100.00
2023-04-08T16:20:56.690Z,100.00
2023-04-08T16:23:23.481Z,99.80
2023-04-08T16:25:50.321Z,100.00
2023-04-08T16:28:18.074Z,97.92
2023-04-08T16:30:44.736Z,98.08
2023-04-08T16:33:11.503Z,98.62
2023-04-08T16:35:38.691Z,100.00
2023-04-08T16:38:06.151Z,99.38
2023-04-08T16:40:33.670Z,98.14
2023-04-08T16:43:01.191Z,100.00
2023-04-08T16:45:32.451Z,100.00
2023-04-08T16:48:00.330Z,100.00
2023-04-08T16:50:28.361Z,100.00
2023-04-08T16:52:55.381Z,100.00
2023-04-08T16:55:21.991Z,100.00
2023-04-08T16:57:48.682Z,100.00
2023-04-08T17:00:16.861Z,100.00
2023-04-08T17:02:45.086Z,100.00
2023-04-08T17:05:11.757Z,100.00
2023-04-08T17:07:38.440Z,100.00
2023-04-08T17:10:05.617Z,100.00
2023-04-08T17:12:33.076Z,100.00
2023-04-08T17:14:59.613Z,100.00
2023-04-08T17:17:26.212Z,100.00
2023-04-08T17:19:53.174Z,100.00
2023-04-08T17:22:19.800Z,100.00
2023-04-08T17:24:48.032Z,100.00
2023-04-08T17:27:14.887Z,100.00
2023-04-08T17:29:41.527Z,100.00
2023-04-08T17:32:08.313Z,100.00
2023-04-08T17:34:35.133Z,100.00
2023-04-08T17:37:01.749Z,100.00
2023-04-08T17:39:28.329Z,100.00
2023-04-08T17:41:54.887Z,100.00
2023-04-08T17:44:21.810Z,100.00
2023-04-08T17:46:48.403Z,100.00
2023-04-08T17:49:14.983Z,100.00
2023-04-08T17:51:41.703Z,100.00
2023-04-08T17:54:08.355Z,100.00
2023-04-08T17:56:34.967Z,100.00
2023-04-08T17:59:02.028Z,100.00
2023-04-08T18:01:28.644Z,100.00
2023-04-08T18:03:56.158Z,100.00
2023-04-08T18:06:22.918Z,100.00
2023-04-08T18:08:49.783Z,100.00
2023-04-08T18:11:16.354Z,100.00
2023-04-08T18:13:42.969Z,100.00
2023-04-08T18:16:20.767Z,100.00
2023-04-08T18:18:48.188Z,100.00
2023-04-08T18:21:17.973Z,100.00
2023-04-08T18:23:47.061Z,100.00
2023-04-08T18:26:13.793Z,100.00
2023-04-08T18:28:40.463Z,100.00
2023-04-08T18:31:07.859Z,100.00
2023-04-08T18:33:34.675Z,100.00
2023-04-08T18:36:12.766Z,100.00
2023-04-08T18:38:41.088Z,100.00
2023-04-08T18:41:08.343Z,100.00
2023-04-08T18:43:35.051Z,100.00
2023-04-08T18:46:01.981Z,100.00
2023-04-08T18:48:28.979Z,100.00
2023-04-08T18:50:55.583Z,100.00
2023-04-08T18:53:23.388Z,100.00
2023-04-08T18:55:51.408Z,100.00
2023-04-08T18:58:18.296Z,100.00
2023-04-08T19:00:45.184Z,100.00
2023-04-08T19:03:11.984Z,100.00
2023-04-08T19:05:39.000Z,100.00
2023-04-08T19:08:06.155Z,100.00
2023-04-08T19:10:33.995Z,100.00
2023-04-08T19:13:01.319Z,100.00
2023-04-08T19:15:29.181Z,100.00
2023-04-08T19:17:56.638Z,100.00
2023-04-08T19:20:23.428Z,100.00
2023-04-08T19:22:50.414Z,100.00
2023-04-08T19:25:17.653Z,100.00
2023-04-08T19:27:46.020Z,100.00
2023-04-08T19:30:13.358Z,100.00
2023-04-08T19:32:40.242Z,100.00
2023-04-08T19:35:07.564Z,100.00
2023-04-08T19:37:34.409Z,100.00
2023-04-08T19:40:01.183Z,100.00
2023-04-08T19:42:27.809Z,100.00
2023-04-08T19:44:55.261Z,100.00
2023-04-08T19:47:22.164Z,100.00
2023-04-08T19:49:49.066Z,100.00
2023-04-08T19:52:15.668Z,100.00
2023-04-08T19:54:43.406Z,100.00
2023-04-08T19:57:11.051Z,100.00
2023-04-08T19:59:38.214Z,100.00
2023-04-08T20:02:05.070Z,100.00
2023-04-08T20:04:32.194Z,100.00
2023-04-08T20:07:02.602Z,100.00
2023-04-08T20:09:32.787Z,100.00
2023-04-08T20:12:06.042Z,100.00
2023-04-08T20:14:35.971Z,100.00
2023-04-08T20:17:02.885Z,100.00
2023-04-08T20:19:29.531Z,100.00
2023-04-08T20:21:57.390Z,100.00
2023-04-08T20:24:24.033Z,100.00
2023-04-08T20:26:50.596Z,100.00
2023-04-08T20:29:17.220Z,100.00
2023-04-08T20:31:44.970Z,100.00
2023-04-08T20:34:12.126Z,100.00
2023-04-08T20:36:39.903Z,100.00
2023-04-08T20:39:10.039Z,100.00
2023-04-08T20:41:37.750Z,100.00
2023-04-08T20:44:06.188Z,100.00
2023-04-08T20:46:32.902Z,100.00
2023-04-08T20:48:59.638Z,100.00
2023-04-08T20:51:27.665Z,100.00
2023-04-08T20:53:54.337Z,100.00
2023-04-08T20:56:21.368Z,100.00
2023-04-08T20:58:48.015Z,100.00
2023-04-08T21:01:14.610Z,100.00
2023-04-08T21:03:41.353Z,100.00
2023-04-08T21:06:08.403Z,100.00
2023-04-08T21:08:34.950Z,100.00
2023-04-08T21:11:01.675Z,100.00
2023-04-08T21:13:28.235Z,100.00
2023-04-08T21:15:54.802Z,100.00
2023-04-08T21:18:21.421Z,100.00
2023-04-08T21:20:49.426Z,100.00
2023-04-08T21:23:16.257Z,100.00
2023-04-08T21:25:42.840Z,100.00
2023-04-08T21:28:09.468Z,100.00
2023-04-08T21:30:37.002Z,100.00
2023-04-08T21:33:03.826Z,100.00
2023-04-08T21:35:30.654Z,100.00
2023-04-08T21:37:57.349Z,100.00
2023-04-08T21:40:24.207Z,100.00
2023-04-08T21:42:51.630Z,100.00
2023-04-08T21:45:18.562Z,100.00
2023-04-08T21:47:45.655Z,100.00
2023-04-08T21:50:12.229Z,100.00
2023-04-08T21:52:39.154Z,100.00
2023-04-08T21:55:07.284Z,100.00
2023-04-08T21:57:34.002Z,100.00
2023-04-08T22:00:00.641Z,100.00
2023-04-08T22:02:27.550Z,100.00
2023-04-08T22:05:12.774Z,100.00
2023-04-08T22:07:39.557Z,100.00
2023-04-08T22:10:06.717Z,100.00
2023-04-08T22:12:34.315Z,100.00
2023-04-08T22:15:00.940Z,100.00
2023-04-08T22:17:27.590Z,100.00
2023-04-08T22:19:54.282Z,100.00
2023-04-08T22:22:21.116Z,100.00
2023-04-08T22:24:47.841Z,100.00
2023-04-08T22:27:14.509Z,100.00
2023-04-08T22:29:41.060Z,100.00
2023-04-08T22:32:07.656Z,100.00
2023-04-08T22:34:35.674Z,100.00
2023-04-08T22:37:02.336Z,100.00
2023-04-08T22:39:29.057Z,100.00
2023-04-08T22:41:56.779Z,100.00
2023-04-08T22:44:23.425Z,100.00
2023-04-08T22:46:50.155Z,100.00
2023-04-08T22:49:16.920Z,100.00
2023-04-08T22:51:43.527Z,100.00
2023-04-08T22:54:10.184Z,100.00
2023-04-08T22:56:36.917Z,100.00
2023-04-08T22:59:03.601Z,100.00
2023-04-08T23:01:30.534Z,100.00
2023-04-08T23:03:57.229Z,100.00
2023-04-08T23:06:23.814Z,100.00
2023-04-08T23:08:50.598Z,100.00
2023-04-08T23:11:17.464Z,100.00
2023-04-08T23:13:44.114Z,100.00
2023-04-08T23:16:11.012Z,100.00
2023-04-08T23:18:37.581Z,100.00
2023-04-08T23:21:04.704Z,100.00
2023-04-08T23:23:31.589Z,100.00
2023-04-08T23:25:58.253Z,100.00
2023-04-08T23:28:24.772Z,100.00
2023-04-08T23:30:51.425Z,100.00
2023-04-08T23:33:18.061Z,100.00
2023-04-08T23:35:44.958Z,100.00
2023-04-08T23:38:11.748Z,100.00
2023-04-08T23:40:38.474Z,100.00
2023-04-08T23:43:05.228Z,100.00
2023-04-08T23:45:31.849Z,100.00
2023-04-08T23:47:58.831Z,100.00
2023-04-08T23:50:25.470Z,100.00
2023-04-08T23:52:52.313Z,100.00
2023-04-08T23:55:18.949Z,100.00
2023-04-08T23:57:45.619Z,100.00
